Sylvan Lake, Michigan
Current Conditions -  °F | °C
As of 9:40 AM on Tuesday 21 Oct 2014 (Local Time) from KPTK Reporting Station
Light Rain Light Rain  
Wind Chill: 39°   Ceiling: 1300
Heat Index: 45°   Visibility: 7mi
Dew Point: 41°   Wind: 13mph
Humidity: 86%   Direction: 340°NNW
Pressure: 30"   Gusts: NA
Location:  42.6112°N, 83.3377°W
Report Text: KPTK 211340Z 34011KT 7SM -RA BKN013 OVC029 07/05 A3000 RMK AO2 RAB36 P0000 T00720050
Loading
Personal Weather Stations






























Interactive Weather Map
Tropical Storm Tracking
New forecast layout! Learn more

10-Day Weather Forecast

Advertisements
Track Severe Weather on mobile